createdAt,value
2022-08-05T00:00:53.887Z,7.80
2022-08-05T00:06:05.728Z,6.53
2022-08-05T00:11:23.820Z,4.80
2022-08-05T00:16:52.466Z,4.95
2022-08-05T00:21:55.554Z,7.25
2022-08-05T00:26:57.365Z,4.83
2022-08-05T00:32:13.012Z,5.03
2022-08-05T00:37:16.960Z,5.20
2022-08-05T00:42:39.966Z,8.35
2022-08-05T00:47:56.409Z,4.60
2022-08-05T00:52:59.336Z,7.63
2022-08-05T00:58:01.684Z,5.65
2022-08-05T01:03:07.978Z,6.03
2022-08-05T01:08:41.364Z,7.55
2022-08-05T01:14:00.109Z,5.83
2022-08-05T01:19:16.089Z,4.72
2022-08-05T01:24:49.962Z,5.68
2022-08-05T01:29:56.516Z,4.88
2022-08-05T01:35:10.370Z,5.78
2022-08-05T01:40:17.981Z,7.47
2022-08-05T01:45:20.954Z,6.00
2022-08-05T01:50:53.042Z,6.13
2022-08-05T01:55:59.844Z,4.85
2022-08-05T02:01:07.041Z,7.78
2022-08-05T02:06:24.228Z,6.45
2022-08-05T02:11:52.299Z,5.50
2022-08-05T02:17:00.102Z,6.57
2022-08-05T02:22:25.497Z,5.95
2022-08-05T02:27:59.483Z,6.38
2022-08-05T02:32:55.505Z,7.68
2022-08-05T02:38:00.336Z,9.63
2022-08-05T02:43:07.312Z,6.55
2022-08-05T02:48:12.898Z,8.85
2022-08-05T02:53:19.136Z,8.20
2022-08-05T02:58:22.267Z,8.60
2022-08-05T03:03:26.308Z,6.00
2022-08-05T03:08:29.824Z,7.63
2022-08-05T03:13:52.047Z,7.25
2022-08-05T03:18:53.618Z,11.45
2022-08-05T03:23:57.770Z,6.28
2022-08-05T03:29:00.290Z,8.35
2022-08-05T03:34:04.396Z,7.30
2022-08-05T03:39:07.880Z,7.47
2022-08-05T03:44:11.653Z,7.00
2022-08-05T03:49:14.971Z,6.63
2022-08-05T03:55:51.580Z,7.40
2022-08-05T03:59:56.183Z,5.95
2022-08-05T04:04:59.818Z,7.65
2022-08-05T04:10:03.224Z,7.72
2022-08-05T04:15:05.841Z,7.53
2022-08-05T04:20:21.110Z,6.35
2022-08-05T04:25:56.673Z,6.57
2022-08-05T04:30:48.323Z,9.75
2022-08-05T04:36:15.789Z,9.18
2022-08-05T04:41:12.249Z,12.63
2022-08-05T04:46:13.977Z,8.85
2022-08-05T04:51:30.377Z,6.72
2022-08-05T05:02:07.692Z,7.70
2022-08-05T05:07:00.337Z,7.60
2022-08-05T05:12:04.518Z,14.07
2022-08-05T05:17:09.311Z,13.73
2022-08-05T05:22:24.152Z,13.07
2022-08-05T05:27:44.567Z,17.10
2022-08-05T05:32:47.932Z,35.00
2022-08-05T05:38:00.348Z,27.48
2022-08-05T05:43:03.637Z,18.52
2022-08-05T05:48:08.870Z,16.33
2022-08-05T05:53:22.212Z,7.78
2022-08-05T05:58:30.320Z,10.18
2022-08-05T06:03:54.128Z,11.40
2022-08-05T06:08:55.765Z,6.70
2022-08-05T06:13:57.867Z,7.75
2022-08-05T06:19:05.886Z,5.63
2022-08-05T06:24:11.458Z,7.35
2022-08-05T06:29:25.329Z,7.18
2022-08-05T06:34:35.721Z,7.27
2022-08-05T06:39:39.316Z,6.38
2022-08-05T06:44:43.476Z,10.30
2022-08-05T06:50:01.948Z,8.32
2022-08-05T06:55:07.838Z,10.35
2022-08-05T07:00:10.483Z,8.77
2022-08-05T07:05:18.940Z,9.07
2022-08-05T07:10:21.963Z,9.80
2022-08-05T07:16:01.782Z,8.77
2022-08-05T07:21:07.005Z,11.07
2022-08-05T07:26:11.130Z,11.07
2022-08-05T07:31:15.682Z,14.60
2022-08-05T07:36:20.772Z,9.03
2022-08-05T07:42:14.449Z,9.93
2022-08-05T07:46:48.275Z,8.98
2022-08-05T07:51:54.317Z,8.95
2022-08-05T07:57:14.012Z,11.25
2022-08-05T08:02:26.777Z,11.23
2022-08-05T08:07:59.133Z,9.85
2022-08-05T08:12:55.118Z,10.88
2022-08-05T08:18:01.990Z,9.75
2022-08-05T08:23:04.787Z,12.68
2022-08-05T08:28:06.566Z,16.00
2022-08-05T08:33:20.017Z,13.52
2022-08-05T08:38:32.312Z,10.25
2022-08-05T08:45:19.741Z,6.88
2022-08-05T08:50:05.697Z,7.93
2022-08-05T08:54:27.337Z,10.73
2022-08-05T08:59:33.553Z,7.80
2022-08-05T09:04:57.843Z,12.27
2022-08-05T09:09:59.595Z,11.80
2022-08-05T09:15:05.708Z,5.60
2022-08-05T09:20:09.229Z,7.75
2022-08-05T09:25:13.855Z,7.80
2022-08-05T09:30:25.987Z,8.88
2022-08-05T09:35:28.276Z,6.80
2022-08-05T09:40:36.210Z,5.97
2022-08-05T09:46:06.497Z,8.60
2022-08-05T09:51:14.830Z,4.72
2022-08-05T09:56:29.231Z,6.35
2022-08-05T10:01:36.852Z,6.70
2022-08-05T10:06:54.810Z,7.13
2022-08-05T10:12:29.986Z,5.90
2022-08-05T10:17:37.283Z,7.95
2022-08-05T10:22:43.030Z,7.32
2022-08-05T10:28:12.821Z,7.30
2022-08-05T10:33:18.307Z,8.95
2022-08-05T10:38:23.048Z,7.70
2022-08-05T10:43:48.836Z,5.25
2022-08-05T10:49:01.450Z,5.72
2022-08-05T10:54:23.083Z,7.40
2022-08-05T11:00:02.127Z,8.43
2022-08-05T11:04:55.180Z,5.90
2022-08-05T11:10:04.131Z,5.50
2022-08-05T11:16:01.008Z,7.93
2022-08-05T11:20:53.275Z,3.92
2022-08-05T11:26:09.935Z,4.25
2022-08-05T11:31:11.827Z,7.80
2022-08-05T11:36:44.331Z,6.07
2022-08-05T11:42:01.755Z,9.75
2022-08-05T11:47:14.242Z,9.60
2022-08-05T11:52:29.338Z,4.35
2022-08-05T11:58:08.660Z,10.80
2022-08-05T12:02:53.767Z,6.72
2022-08-05T12:08:10.271Z,5.45
2022-08-05T12:13:47.650Z,8.45
2022-08-05T12:18:52.739Z,5.50
2022-08-05T12:24:00.378Z,7.97
2022-08-05T12:34:20.716Z,6.10
2022-08-05T12:44:40.875Z,6.10
2022-08-05T12:50:04.070Z,7.15
2022-08-05T12:55:25.216Z,5.65
2022-08-05T13:02:05.684Z,6.75
2022-08-05T13:05:54.883Z,3.75
2022-08-05T13:11:02.092Z,8.27
2022-08-05T13:16:11.382Z,4.60
2022-08-05T13:21:13.082Z,4.93
2022-08-05T13:26:15.474Z,4.95
2022-08-05T13:31:17.971Z,4.07
2022-08-05T13:36:36.426Z,4.15
2022-08-05T13:41:38.329Z,5.20
2022-08-05T13:47:02.371Z,5.82
2022-08-05T13:57:15.600Z,6.50
2022-08-05T14:02:19.938Z,6.40
2022-08-05T14:08:00.249Z,6.95
2022-08-05T14:12:48.640Z,5.15
2022-08-05T14:17:50.758Z,6.43
2022-08-05T14:23:00.515Z,3.88
2022-08-05T14:28:02.269Z,3.55
2022-08-05T14:33:04.719Z,6.47
2022-08-05T14:38:06.753Z,6.32
2022-08-05T14:44:02.361Z,4.43
2022-08-05T14:54:27.601Z,4.95
2022-08-05T14:59:14.649Z,6.30
2022-08-05T15:04:20.293Z,3.25
2022-08-05T15:09:51.618Z,7.63
2022-08-05T15:14:49.580Z,6.63
2022-08-05T15:19:52.114Z,4.70
2022-08-05T15:24:58.986Z,6.00
2022-08-05T15:30:10.758Z,8.48
2022-08-05T15:35:16.106Z,3.55
2022-08-05T15:41:03.072Z,5.50
2022-08-05T15:45:45.720Z,8.50
2022-08-05T15:50:47.993Z,4.55
2022-08-05T15:56:01.945Z,5.65
2022-08-05T16:01:17.358Z,3.90
2022-08-05T16:06:20.928Z,5.32
2022-08-05T16:11:42.713Z,4.97
2022-08-05T16:16:47.121Z,5.23
2022-08-05T16:21:58.844Z,6.22
2022-08-05T16:27:04.030Z,3.35
2022-08-05T16:32:09.925Z,3.83
2022-08-05T16:38:03.147Z,5.43
2022-08-05T16:47:48.424Z,4.75
2022-08-05T16:52:56.471Z,4.82
2022-08-05T16:58:01.276Z,6.28
2022-08-05T17:03:15.450Z,7.13
2022-08-05T17:08:36.252Z,5.00
2022-08-05T17:13:47.341Z,3.83
2022-08-05T17:18:49.886Z,5.47
2022-08-05T17:24:05.054Z,6.97
2022-08-05T17:29:10.400Z,5.57
2022-08-05T17:34:12.165Z,4.65
2022-08-05T17:39:23.873Z,3.92
2022-08-05T17:44:32.348Z,5.95
2022-08-05T17:49:59.739Z,3.33
2022-08-05T17:54:56.125Z,3.75
2022-08-05T18:00:03.717Z,4.53
2022-08-05T18:05:08.269Z,5.22
2022-08-05T18:10:20.278Z,6.10
2022-08-05T18:15:24.333Z,3.55
2022-08-05T18:20:29.663Z,5.60
2022-08-05T18:25:34.235Z,3.92
2022-08-05T18:30:38.901Z,7.80
2022-08-05T18:36:00.876Z,5.43
2022-08-05T18:41:53.691Z,4.53
2022-08-05T18:46:29.069Z,5.25
2022-08-05T18:52:05.767Z,4.22
2022-08-05T18:57:15.525Z,4.78
2022-08-05T19:02:28.299Z,5.00
2022-08-05T19:07:45.286Z,9.27
2022-08-05T19:12:48.679Z,6.10
2022-08-05T19:17:59.892Z,8.48
2022-08-05T19:23:22.601Z,6.20
2022-08-05T19:28:34.678Z,5.35
2022-08-05T19:33:38.073Z,6.88
2022-08-05T19:38:43.767Z,5.65
2022-08-05T19:44:06.792Z,5.15
2022-08-05T19:49:07.915Z,6.70
2022-08-05T19:54:21.837Z,6.97
2022-08-05T20:00:00.522Z,4.07
2022-08-05T20:04:55.383Z,5.10
2022-08-05T20:10:00.412Z,8.65
2022-08-05T20:15:02.169Z,6.53
2022-08-05T20:20:09.493Z,4.90
2022-08-05T20:25:12.927Z,8.93
2022-08-05T20:30:14.968Z,7.55
2022-08-05T20:35:20.197Z,7.07
2022-08-05T20:40:21.870Z,15.20
2022-08-05T20:50:46.916Z,10.32
2022-08-05T20:55:56.593Z,11.63
2022-08-05T21:01:10.626Z,7.55
2022-08-05T21:06:28.434Z,8.60
2022-08-05T21:12:08.990Z,10.23
2022-08-05T21:16:53.430Z,10.53
2022-08-05T21:21:55.250Z,8.70
2022-08-05T21:26:58.687Z,8.40
2022-08-05T21:32:04.427Z,8.57
2022-08-05T21:37:08.133Z,9.55
2022-08-05T21:42:19.770Z,6.80
2022-08-05T21:52:58.576Z,7.18
2022-08-05T21:58:01.685Z,6.05
2022-08-05T22:03:05.289Z,8.10
2022-08-05T22:08:07.151Z,5.27
2022-08-05T22:14:32.384Z,8.32
2022-08-05T22:18:49.113Z,7.17
2022-08-05T22:24:39.421Z,7.15
2022-08-05T22:29:32.933Z,7.95
2022-08-05T22:34:34.951Z,7.80
2022-08-05T22:39:38.135Z,7.35
2022-08-05T22:44:47.050Z,8.90
2022-08-05T22:50:19.230Z,7.55
2022-08-05T22:55:18.598Z,7.13
2022-08-05T23:00:23.599Z,6.32
2022-08-05T23:05:25.354Z,8.73
2022-08-05T23:10:27.038Z,8.73
2022-08-05T23:15:35.232Z,10.27
2022-08-05T23:20:38.029Z,10.02
2022-08-05T23:25:54.661Z,13.00
2022-08-05T23:31:16.297Z,12.05
2022-08-05T23:36:19.499Z,11.25
2022-08-05T23:41:21.262Z,11.67
2022-08-05T23:46:23.685Z,11.15
2022-08-05T23:51:25.407Z,12.95
